Horse Shoe, North Carolina
Current Conditions -  °F | °C
As of 12:54 PM on Saturday 27 Dec 2014 (Local Time) from KAVL Reporting Station
Scattered Clouds Scattered Clouds  
Wind Chill: 59°   Ceiling: Unl
Heat Index: 59°   Visibility: 10mi
Dew Point: 29°   Wind: 3mph
Humidity: 32%   Direction: 110°ESE
Pressure: 30.24"   Gusts: NA
Location:  35.38°N, 82.56°W
Report Text: KAVL 271754Z 11003KT 10SM SCT065 15/M02 A3024 RMK AO2 SLP236 T01501017 10150 20017 58027
Loading
Personal Weather Stations






























Interactive Weather Map New forecast layout! Learn more

10-Day Weather Forecast

Advertisements
Track Severe Weather on mobile